createdAt,value
2018-06-16T00:00:19.793Z,7.00
2018-06-16T00:02:48.718Z,8.83
2018-06-16T00:05:17.619Z,8.08
2018-06-16T00:07:46.498Z,5.07
2018-06-16T00:10:15.344Z,6.03
2018-06-16T00:12:44.221Z,4.87
2018-06-16T00:15:13.105Z,6.50
2018-06-16T00:17:41.980Z,7.40
2018-06-16T00:20:10.930Z,5.33
2018-06-16T00:22:39.989Z,7.03
2018-06-16T00:25:08.857Z,6.23
2018-06-16T00:27:37.728Z,5.00
2018-06-16T00:30:06.591Z,4.43
2018-06-16T00:32:35.479Z,7.10
2018-06-16T00:35:04.662Z,6.87
2018-06-16T00:37:33.603Z,6.97
2018-06-16T00:40:02.493Z,3.70
2018-06-16T00:42:31.352Z,6.23
2018-06-16T00:45:00.253Z,3.40
2018-06-16T00:47:29.148Z,4.22
2018-06-16T00:49:58.059Z,6.00
2018-06-16T00:52:27.022Z,5.60
2018-06-16T00:54:55.844Z,4.30
2018-06-16T00:57:36.053Z,6.03
2018-06-16T01:00:04.945Z,3.67
2018-06-16T01:02:33.787Z,3.50
2018-06-16T01:05:02.643Z,4.53
2018-06-16T01:07:31.480Z,3.67
2018-06-16T01:10:00.324Z,6.43
2018-06-16T01:12:29.274Z,7.17
2018-06-16T01:14:58.175Z,5.07
2018-06-16T01:17:27.016Z,4.23
2018-06-16T01:19:57.333Z,6.83
2018-06-16T01:22:26.219Z,5.77
2018-06-16T01:24:55.191Z,8.67
2018-06-16T01:27:24.067Z,10.37
2018-06-16T01:29:53.001Z,8.57
2018-06-16T01:32:21.921Z,3.73
2018-06-16T01:34:50.779Z,6.23
2018-06-16T01:37:19.814Z,5.17
2018-06-16T01:39:48.999Z,7.20
2018-06-16T01:42:18.088Z,4.90
2018-06-16T01:44:46.996Z,5.63
2018-06-16T01:47:15.890Z,5.53
2018-06-16T01:49:44.758Z,5.30
2018-06-16T01:52:13.617Z,5.00
2018-06-16T01:54:42.477Z,8.40
2018-06-16T01:57:11.405Z,6.47
2018-06-16T01:59:40.288Z,4.97
2018-06-16T02:02:09.149Z,3.83
2018-06-16T02:04:38.003Z,6.03
2018-06-16T02:07:06.867Z,9.03
2018-06-16T02:09:35.757Z,6.83
2018-06-16T02:12:04.701Z,6.27
2018-06-16T02:14:33.552Z,7.57
2018-06-16T02:17:02.427Z,9.97
2018-06-16T02:19:31.266Z,8.27
2018-06-16T02:22:00.165Z,6.33
2018-06-16T02:24:29.042Z,6.00
2018-06-16T02:26:57.998Z,11.73
2018-06-16T02:29:26.923Z,8.50
2018-06-16T02:31:55.731Z,4.63
2018-06-16T02:34:24.693Z,8.77
2018-06-16T02:36:53.672Z,8.43
2018-06-16T02:39:22.568Z,4.37
2018-06-16T02:41:51.513Z,7.67
2018-06-16T02:44:20.389Z,5.37
2018-06-16T02:46:49.236Z,6.73
2018-06-16T02:49:18.113Z,4.83
2018-06-16T02:51:46.985Z,4.77
2018-06-16T02:54:15.843Z,6.13
2018-06-16T02:56:44.480Z,5.03
2018-06-16T02:59:13.307Z,5.83
2018-06-16T03:01:42.216Z,3.40
2018-06-16T03:04:11.130Z,5.60
2018-06-16T03:06:39.748Z,4.73
2018-06-16T03:09:09.503Z,5.20
2018-06-16T03:11:38.507Z,7.13
2018-06-16T03:14:07.389Z,4.03
2018-06-16T03:16:36.301Z,5.57
2018-06-16T03:19:05.159Z,4.00
2018-06-16T03:21:34.029Z,4.83
2018-06-16T03:24:02.885Z,5.73
2018-06-16T03:26:31.806Z,5.47
2018-06-16T03:29:00.674Z,4.33
2018-06-16T03:31:29.656Z,6.30
2018-06-16T03:33:58.532Z,6.20
2018-06-16T03:36:27.437Z,6.67
2018-06-16T03:38:56.279Z,5.23
2018-06-16T03:41:25.220Z,5.13
2018-06-16T03:43:54.141Z,4.77
2018-06-16T03:46:23.004Z,4.03
2018-06-16T03:48:51.853Z,4.83
2018-06-16T03:51:20.713Z,5.10
2018-06-16T03:53:49.601Z,5.67
2018-06-16T03:56:18.476Z,3.75
2018-06-16T03:58:47.372Z,4.60
2018-06-16T04:01:16.254Z,4.87
2018-06-16T04:03:45.109Z,6.00
2018-06-16T04:06:13.908Z,4.97
2018-06-16T04:08:42.750Z,5.15
2018-06-16T04:11:11.641Z,7.22
2018-06-16T04:13:40.537Z,6.27
2018-06-16T04:16:09.383Z,3.93
2018-06-16T04:18:38.695Z,6.17
2018-06-16T04:21:07.517Z,12.33
2018-06-16T04:23:36.380Z,4.30
2018-06-16T04:26:05.600Z,5.87
2018-06-16T04:28:34.712Z,3.77
2018-06-16T04:31:04.543Z,5.62
2018-06-16T04:33:34.433Z,4.78
2018-06-16T04:36:03.309Z,5.20
2018-06-16T04:38:32.184Z,4.37
2018-06-16T04:41:01.126Z,6.15
2018-06-16T04:43:31.214Z,5.97
2018-06-16T04:46:00.140Z,6.83
2018-06-16T04:48:29.163Z,5.00
2018-06-16T04:50:58.037Z,4.00
2018-06-16T04:53:26.871Z,5.77
2018-06-16T04:55:55.739Z,8.57
2018-06-16T04:58:24.793Z,4.20
2018-06-16T05:00:53.704Z,4.60
2018-06-16T05:03:23.567Z,7.40
2018-06-16T05:05:52.519Z,7.63
2018-06-16T05:08:21.471Z,9.03
2018-06-16T05:10:50.406Z,4.73
2018-06-16T05:13:19.293Z,17.83
2018-06-16T05:15:48.186Z,10.07
2018-06-16T05:18:18.121Z,9.97
2018-06-16T05:20:47.015Z,4.83
2018-06-16T05:23:15.933Z,5.10
2018-06-16T05:25:44.903Z,9.07
2018-06-16T05:28:13.704Z,11.67
2018-06-16T05:30:42.600Z,5.47
2018-06-16T05:33:18.637Z,8.47
2018-06-16T05:35:48.176Z,6.22
2018-06-16T05:38:17.768Z,8.03
2018-06-16T05:40:46.787Z,8.03
2018-06-16T05:43:16.796Z,8.73
2018-06-16T05:45:46.269Z,6.15
2018-06-16T05:48:16.327Z,7.90
2018-06-16T05:50:45.268Z,4.70
2018-06-16T05:53:14.163Z,6.27
2018-06-16T05:55:44.103Z,6.70
2018-06-16T05:58:13.395Z,7.03
2018-06-16T06:00:42.774Z,7.57
2018-06-16T06:03:12.713Z,7.63
2018-06-16T06:05:42.927Z,8.57
2018-06-16T06:08:11.862Z,7.83
2018-06-16T06:10:41.831Z,11.83
2018-06-16T06:13:10.766Z,6.67
2018-06-16T06:15:39.669Z,12.47
2018-06-16T06:18:10.328Z,8.30
2018-06-16T06:20:39.196Z,6.50
2018-06-16T06:23:08.085Z,5.30
2018-06-16T06:25:37.620Z,7.00
2018-06-16T06:28:06.501Z,12.23
2018-06-16T06:30:35.377Z,15.07
2018-06-16T06:33:04.982Z,10.73
2018-06-16T06:35:34.016Z,5.83
2018-06-16T06:38:04.884Z,8.07
2018-06-16T06:40:34.974Z,11.13
2018-06-16T06:43:07.205Z,10.87
2018-06-16T06:45:37.856Z,8.53
2018-06-16T06:48:08.136Z,17.27
2018-06-16T06:50:39.126Z,6.60
2018-06-16T06:53:09.022Z,8.30
2018-06-16T06:55:39.170Z,10.60
2018-06-16T06:58:10.313Z,8.23
2018-06-16T07:01:24.476Z,9.60
2018-06-16T07:03:53.842Z,13.80
2018-06-16T07:06:23.548Z,6.83
2018-06-16T07:08:53.895Z,8.27
2018-06-16T07:11:26.193Z,5.93
2018-06-16T07:24:41.455Z,7.33
2018-06-16T07:46:39.089Z,14.33
2018-06-16T07:49:17.935Z,22.93
2018-06-16T07:51:48.976Z,19.37
2018-06-16T07:54:19.690Z,7.70
2018-06-16T07:56:50.122Z,18.37
2018-06-16T07:59:20.901Z,7.83
2018-06-16T08:02:33.201Z,10.70
2018-06-16T08:44:46.110Z,14.93
2018-06-16T08:47:15.743Z,13.20
2018-06-16T08:49:45.528Z,10.60
2018-06-16T08:52:15.478Z,15.90
2018-06-16T08:54:44.476Z,10.43
2018-06-16T08:57:13.408Z,10.30
2018-06-16T08:59:42.421Z,13.10
2018-06-16T09:02:11.426Z,14.60
2018-06-16T09:04:40.372Z,10.67
2018-06-16T09:07:10.000Z,10.37
2018-06-16T09:09:38.908Z,12.63
2018-06-16T09:12:07.917Z,11.30
2018-06-16T09:14:36.871Z,11.27
2018-06-16T09:17:05.827Z,14.77
2018-06-16T09:19:34.692Z,11.07
2018-06-16T09:22:04.524Z,14.73
2018-06-16T09:24:33.542Z,11.87
2018-06-16T09:27:19.275Z,14.57
2018-06-16T09:29:52.251Z,13.13
2018-06-16T09:32:21.629Z,18.50
2018-06-16T09:34:50.475Z,12.73
2018-06-16T09:37:22.898Z,10.34
2018-06-16T09:39:52.693Z,11.80
2018-06-16T09:42:21.636Z,12.15
2018-06-16T09:44:50.518Z,12.70
2018-06-16T09:47:19.430Z,17.83
2018-06-16T09:49:48.521Z,15.77
2018-06-16T09:52:18.690Z,19.80
2018-06-16T09:54:47.587Z,15.43
2018-06-16T09:57:17.526Z,15.60
2018-06-16T09:59:46.509Z,14.03
2018-06-16T10:02:15.506Z,15.90
2018-06-16T10:04:44.386Z,19.13
2018-06-16T10:07:13.255Z,19.98
2018-06-16T10:09:42.113Z,15.30
2018-06-16T10:12:11.018Z,15.83
2018-06-16T10:14:39.993Z,13.43
2018-06-16T10:17:08.856Z,15.23
2018-06-16T10:19:37.749Z,12.70
2018-06-16T10:22:08.566Z,18.47
2018-06-16T10:24:37.771Z,17.73
2018-06-16T10:27:07.579Z,12.47
2018-06-16T10:31:37.158Z,11.87
2018-06-16T10:37:28.396Z,15.03
2018-06-16T10:39:57.432Z,15.87
2018-06-16T10:42:26.575Z,18.53
2018-06-16T10:44:59.831Z,14.73
2018-06-16T10:48:26.301Z,13.20
2018-06-16T10:51:00.513Z,15.47
2018-06-16T10:55:26.819Z,10.53
2018-06-16T10:58:04.165Z,9.23
2018-06-16T11:07:41.996Z,11.27
2018-06-16T11:55:32.244Z,6.77
2018-06-16T11:58:01.203Z,9.90
2018-06-16T12:00:30.044Z,6.90
2018-06-16T12:02:58.950Z,4.90
2018-06-16T12:05:27.976Z,7.87
2018-06-16T12:07:57.023Z,7.23
2018-06-16T12:10:25.859Z,6.30
2018-06-16T12:12:54.797Z,7.57
2018-06-16T12:15:23.691Z,6.85
2018-06-16T12:17:52.547Z,7.43
2018-06-16T12:20:22.328Z,7.63
2018-06-16T12:22:52.482Z,5.53
2018-06-16T12:25:23.214Z,7.83
2018-06-16T12:27:52.174Z,7.20
2018-06-16T12:30:21.906Z,9.75
2018-06-16T12:32:51.754Z,7.37
2018-06-16T12:35:20.660Z,8.93
2018-06-16T12:37:49.547Z,5.90
2018-06-16T12:40:18.668Z,9.60
2018-06-16T12:42:48.364Z,5.83
2018-06-16T12:45:18.317Z,7.00
2018-06-16T12:47:47.370Z,5.97
2018-06-16T12:50:16.456Z,10.70
2018-06-16T12:52:45.411Z,8.37
2018-06-16T12:55:14.346Z,7.77
2018-06-16T12:57:43.272Z,8.97
2018-06-16T13:00:12.170Z,6.87
2018-06-16T13:02:41.049Z,6.43
2018-06-16T13:05:10.266Z,5.67
2018-06-16T13:07:39.220Z,4.23
2018-06-16T13:10:12.540Z,6.50
2018-06-16T13:12:41.530Z,6.97
2018-06-16T13:15:10.921Z,8.37
2018-06-16T13:17:41.690Z,9.60
2018-06-16T13:20:10.828Z,9.67
2018-06-16T13:22:40.386Z,8.77
2018-06-16T13:25:09.305Z,9.27
2018-06-16T13:27:41.549Z,5.57
2018-06-16T13:30:10.397Z,4.87
2018-06-16T13:32:39.990Z,5.27
2018-06-16T13:35:10.694Z,10.57
2018-06-16T13:37:39.547Z,6.13
2018-06-16T13:40:08.636Z,5.23
2018-06-16T13:42:38.444Z,6.07
2018-06-16T13:45:08.823Z,5.13
2018-06-16T13:47:37.724Z,8.30
2018-06-16T13:50:07.613Z,7.50
2018-06-16T13:52:36.518Z,6.23
2018-06-16T13:55:08.743Z,3.10
2018-06-16T13:57:37.625Z,5.37
2018-06-16T14:00:06.560Z,7.33
2018-06-16T14:02:35.942Z,4.97
2018-06-16T14:05:04.817Z,3.67
2018-06-16T14:07:34.726Z,5.30
2018-06-16T14:10:04.534Z,4.20
2018-06-16T14:12:35.216Z,6.30
2018-06-16T14:15:05.055Z,6.60
2018-06-16T14:17:34.092Z,7.73
2018-06-16T14:20:03.295Z,5.63
2018-06-16T14:22:32.919Z,4.93
2018-06-16T14:25:06.482Z,4.57
2018-06-16T14:27:35.464Z,3.23
2018-06-16T14:30:04.612Z,5.77
2018-06-16T14:32:33.909Z,5.90
2018-06-16T14:35:03.025Z,4.37
2018-06-16T14:37:31.921Z,5.47
2018-06-16T14:40:00.803Z,2.23
2018-06-16T14:42:29.696Z,6.07
2018-06-16T14:44:58.630Z,3.23
2018-06-16T14:47:27.518Z,5.23
2018-06-16T14:49:56.419Z,4.43
2018-06-16T14:52:25.269Z,3.07
2018-06-16T14:54:54.143Z,2.43
2018-06-16T14:57:23.077Z,2.70
2018-06-16T14:59:51.940Z,5.07
2018-06-16T15:02:20.799Z,1.97
2018-06-16T15:04:49.804Z,2.83
2018-06-16T15:07:18.604Z,4.33
2018-06-16T15:09:47.612Z,2.60
2018-06-16T15:12:16.482Z,4.63
2018-06-16T15:14:45.390Z,3.37
2018-06-16T15:17:14.297Z,4.90
2018-06-16T15:19:43.388Z,2.93
2018-06-16T15:22:12.234Z,2.63
2018-06-16T15:24:41.065Z,4.60
2018-06-16T15:27:09.998Z,3.13
2018-06-16T15:29:38.921Z,5.40
2018-06-16T15:32:08.952Z,3.40
2018-06-16T15:34:37.811Z,2.10
2018-06-16T15:37:07.142Z,2.83
2018-06-16T15:39:36.065Z,2.73
2018-06-16T15:42:04.920Z,2.63
2018-06-16T15:44:33.813Z,3.07
2018-06-16T15:47:02.751Z,4.13
2018-06-16T15:49:31.688Z,4.17
2018-06-16T15:52:00.581Z,4.23
2018-06-16T15:54:29.476Z,5.23
2018-06-16T15:56:58.312Z,2.73
2018-06-16T15:59:28.141Z,3.17
2018-06-16T16:01:58.140Z,3.23
2018-06-16T16:04:27.000Z,2.17
2018-06-16T16:06:56.639Z,3.07
2018-06-16T16:09:25.517Z,3.60
2018-06-16T16:11:54.374Z,2.43
2018-06-16T16:14:23.338Z,1.67
2018-06-16T16:16:52.193Z,3.97
2018-06-16T16:19:21.086Z,5.00
2018-06-16T16:21:50.001Z,6.60
2018-06-16T16:24:19.191Z,1.97
2018-06-16T16:26:48.055Z,3.70
2018-06-16T16:29:17.028Z,5.17
2018-06-16T16:31:46.679Z,4.03
2018-06-16T16:34:15.575Z,3.87
2018-06-16T16:36:44.434Z,2.50
2018-06-16T16:39:13.416Z,1.97
2018-06-16T16:41:42.256Z,3.70
2018-06-16T16:44:11.104Z,3.58
2018-06-16T16:46:39.975Z,2.37
2018-06-16T16:49:09.197Z,5.37
2018-06-16T16:51:38.180Z,2.23
2018-06-16T16:54:07.132Z,2.07
2018-06-16T16:56:35.976Z,2.13
2018-06-16T16:59:05.023Z,4.03
2018-06-16T17:01:33.840Z,6.03
2018-06-16T17:04:02.745Z,2.50
2018-06-16T17:06:31.655Z,1.63
2018-06-16T17:09:00.599Z,2.03
2018-06-16T17:11:29.663Z,3.00
2018-06-16T17:13:58.623Z,1.40
2018-06-16T17:16:27.608Z,1.30
2018-06-16T17:18:56.643Z,7.07
2018-06-16T17:21:25.530Z,3.40
2018-06-16T17:23:54.424Z,6.30
2018-06-16T17:26:23.577Z,5.23
2018-06-16T17:28:52.655Z,5.87
2018-06-16T17:31:21.599Z,5.23
2018-06-16T17:33:50.809Z,7.83
2018-06-16T17:36:19.767Z,5.37
2018-06-16T17:38:48.615Z,6.73
2018-06-16T17:41:17.585Z,8.47
2018-06-16T17:43:46.684Z,9.87
2018-06-16T17:46:15.570Z,6.50
2018-06-16T17:48:44.411Z,10.00
2018-06-16T17:51:13.408Z,4.58
2018-06-16T17:53:42.793Z,9.50
2018-06-16T17:56:11.671Z,12.13
2018-06-16T17:58:40.516Z,9.07
2018-06-16T18:01:09.388Z,6.40
2018-06-16T18:03:41.031Z,7.17
2018-06-16T18:06:09.972Z,8.60
2018-06-16T18:08:38.642Z,14.30
2018-06-16T18:11:07.431Z,4.83
2018-06-16T18:13:36.302Z,7.63
2018-06-16T18:16:05.248Z,9.47
2018-06-16T18:18:34.081Z,8.33
2018-06-16T18:21:02.919Z,6.13
2018-06-16T18:23:31.784Z,5.50
2018-06-16T18:26:00.613Z,5.53
2018-06-16T18:28:29.774Z,6.30
2018-06-16T18:30:58.897Z,5.47
2018-06-16T18:33:27.840Z,6.67
2018-06-16T18:35:57.821Z,7.53
2018-06-16T18:38:26.713Z,9.70
2018-06-16T18:41:03.849Z,8.70
2018-06-16T18:43:35.309Z,10.70
2018-06-16T18:46:07.674Z,9.93
2018-06-16T18:48:38.073Z,5.90
2018-06-16T18:51:13.860Z,9.20
2018-06-16T18:54:01.584Z,8.13
2018-06-16T18:56:39.442Z,9.30
2018-06-16T18:59:08.578Z,9.60
2018-06-16T19:01:37.719Z,7.63
2018-06-16T19:04:12.344Z,7.97
2018-06-16T19:06:41.467Z,8.23
2018-06-16T19:09:12.146Z,6.33
2018-06-16T19:11:45.855Z,10.20
2018-06-16T19:14:45.406Z,6.20
2018-06-16T19:17:14.330Z,11.87
2018-06-16T19:19:44.213Z,10.47
2018-06-16T19:22:13.216Z,9.93
2018-06-16T19:24:42.418Z,6.53
2018-06-16T19:27:11.380Z,11.30
2018-06-16T19:29:44.777Z,8.03
2018-06-16T19:32:13.972Z,9.15
2018-06-16T19:34:43.847Z,8.27
2018-06-16T19:37:15.985Z,8.57
2018-06-16T19:39:46.910Z,6.10
2018-06-16T19:42:31.501Z,6.77
2018-06-16T19:45:19.441Z,5.23
2018-06-16T19:47:50.119Z,3.87
2018-06-16T19:50:20.920Z,7.83
2018-06-16T19:53:27.437Z,5.33
2018-06-16T19:55:58.558Z,5.80
2018-06-16T19:58:46.997Z,7.43
2018-06-16T20:01:16.834Z,7.33
2018-06-16T20:03:46.079Z,5.03
2018-06-16T20:06:15.219Z,5.43
2018-06-16T20:08:44.242Z,6.37
2018-06-16T20:11:13.305Z,6.10
2018-06-16T20:13:43.632Z,6.10
2018-06-16T20:16:12.569Z,6.57
2018-06-16T20:18:41.682Z,4.40
2018-06-16T20:21:10.662Z,4.23
2018-06-16T20:23:39.844Z,5.90
2018-06-16T20:26:08.966Z,5.47
2018-06-16T20:28:38.245Z,6.70
2018-06-16T20:31:07.165Z,3.87
2018-06-16T20:33:36.033Z,5.40
2018-06-16T20:36:05.006Z,3.87
2018-06-16T20:38:33.957Z,4.10
2018-06-16T20:41:02.938Z,4.77
2018-06-16T20:43:31.896Z,5.43
2018-06-16T20:46:00.835Z,5.57
2018-06-16T20:48:29.720Z,6.43
2018-06-16T20:50:58.659Z,4.55
2018-06-16T20:53:27.619Z,5.40
2018-06-16T20:55:56.506Z,4.53
2018-06-16T20:58:25.471Z,4.57
2018-06-16T21:00:54.450Z,4.77
2018-06-16T21:03:23.861Z,5.37
2018-06-16T21:05:52.757Z,5.90
2018-06-16T21:08:21.623Z,4.70
2018-06-16T21:10:50.521Z,6.13
2018-06-16T21:13:19.507Z,5.10
2018-06-16T21:15:48.838Z,3.33
2018-06-16T21:18:17.795Z,3.90
2018-06-16T21:20:46.724Z,6.10
2018-06-16T21:23:15.627Z,5.00
2018-06-16T21:25:44.530Z,3.10
2018-06-16T21:28:14.166Z,5.97
2018-06-16T21:30:43.091Z,7.37
2018-06-16T21:33:11.993Z,5.57
2018-06-16T21:35:40.715Z,4.27
2018-06-16T21:38:09.510Z,5.00
2018-06-16T21:40:38.431Z,4.10
2018-06-16T21:43:07.260Z,4.23
2018-06-16T21:45:36.117Z,3.63
2018-06-16T21:48:05.588Z,4.77
2018-06-16T21:50:34.508Z,6.10
2018-06-16T21:53:04.319Z,6.30
2018-06-16T21:55:33.257Z,2.47
2018-06-16T21:58:03.098Z,3.77
2018-06-16T22:00:33.844Z,3.37
2018-06-16T22:03:04.285Z,4.73
2018-06-16T22:05:34.407Z,2.63
2018-06-16T22:08:09.024Z,3.27
2018-06-16T22:10:38.345Z,5.80
2018-06-16T22:13:07.487Z,6.73
2018-06-16T22:15:37.328Z,2.90
2018-06-16T22:18:06.224Z,5.87
2018-06-16T22:20:35.096Z,6.20
2018-06-16T22:23:04.707Z,3.55
2018-06-16T22:25:33.582Z,4.67
2018-06-16T22:28:02.463Z,5.53
2018-06-16T22:30:31.347Z,3.43
2018-06-16T22:33:00.281Z,8.07
2018-06-16T22:35:29.172Z,6.07
2018-06-16T22:37:58.072Z,3.33
2018-06-16T22:40:26.970Z,2.97
2018-06-16T22:42:55.851Z,4.33
2018-06-16T22:45:24.769Z,7.70
2018-06-16T22:47:53.675Z,4.70
2018-06-16T22:50:22.282Z,5.77
2018-06-16T22:52:51.069Z,4.47
2018-06-16T22:55:19.950Z,6.53
2018-06-16T22:57:48.761Z,4.60
2018-06-16T23:00:21.584Z,3.50
2018-06-16T23:02:50.551Z,4.70
2018-06-16T23:05:19.672Z,3.10
2018-06-16T23:07:48.579Z,4.80
2018-06-16T23:10:17.467Z,3.27
2018-06-16T23:12:46.357Z,3.93
2018-06-16T23:15:15.445Z,4.53
2018-06-16T23:17:44.708Z,4.55
2018-06-16T23:20:13.916Z,7.77
2018-06-16T23:22:44.050Z,4.83
2018-06-16T23:25:13.273Z,3.63
2018-06-16T23:27:42.390Z,2.97
2018-06-16T23:30:11.709Z,4.37
2018-06-16T23:32:40.634Z,10.97
2018-06-16T23:35:09.509Z,2.98
2018-06-16T23:37:38.473Z,4.47
2018-06-16T23:40:07.369Z,4.40
2018-06-16T23:42:36.271Z,3.40
2018-06-16T23:45:05.732Z,6.00
2018-06-16T23:47:34.562Z,3.60
2018-06-16T23:50:03.472Z,4.83
2018-06-16T23:52:32.369Z,4.40
2018-06-16T23:55:01.225Z,3.03
2018-06-16T23:57:30.195Z,4.37
